KPNT

Pontiac Municipal Airport

Pontiac, Illinois, USA
METAR KPNT 180155Z AUTO 00000KT 10SM SCT035 SCT042 SCT060 22/21 A2998 RMK AO2 T02150212
Observed Flight Rules
Aug-18 @ 01:55 UTC (34 minutes ago) Visual Flight Rules
Visibility Clouds
10 miles
  • Scattered at 3,500' AGL
  • Scattered at 4,200' AGL
  • Scattered at 6,000' AGL
Temperatures Readings
Current 22°C / 72°F
Dewpoint 21°C / 70°F
Humidity 94%
Altimeter 29.98" Hg
Pressure 1015 hPa
Elevation 201
METAR KPNT 180155Z AUTO 00000KT 10SM SCT035 SCT042 SCT060 22/21 A2998 RMK AO2 T02150212
Observed Flight Rules
Aug-18 @ 01:55 UTC
(34 minutes ago)
VFR
Clouds
  • Scattered at 3,500' AGL
  • Scattered at 4,200' AGL
  • Scattered at 6,000' AGL
Temperature Dewpoint
22°C / 72°F 21°C / 70°F
Humidity Altimeter Pressure
94% 29.98" Hg 1015 hPa